SJV997 WADD-WAAA
Flight info
| Callsign | SJV997 |
|---|---|
| Flight time | 1h 2m |
| Altitude | 31000 |
| Route | PEDET W41 LIPOT |
| Aircraft | A320/M-SDE3FGHIRWY/LB1 |
Departure
| Time | 2026-04-28 04:10 |
|---|---|
| Airport | Denpasar I Gusti Ngurah Rai International Airport (WADD) |
Arrival
| Time | 2026-04-28 05:12 |
|---|---|
| Airport | Sultan Hasanuddin International Airport (WAAA) |
| Time | Latitude | Longitude | Altitude | Speed | Heading |
|---|---|---|---|---|---|
| 2026-04-28 03:50 | -8.74537 | 115.16933 | 33 ft | 0 kts | 358° |
| 2026-04-28 03:57 | -8.74553 | 115.16934 | 30 ft | 2 kts | 358° |
| 2026-04-28 03:58 | -8.74569 | 115.16935 | 31 ft | 2 kts | 358° |
| 2026-04-28 03:58 | -8.74586 | 115.16935 | 32 ft | 2 kts | 358° |
| 2026-04-28 03:58 | -8.74602 | 115.16936 | 32 ft | 2 kts | 358° |
| 2026-04-28 03:58 | -8.74619 | 115.16937 | 32 ft | 2 kts | 358° |
| 2026-04-28 03:59 | -8.74635 | 115.16937 | 32 ft | 2 kts | 358° |
| 2026-04-28 03:59 | -8.74652 | 115.16938 | 32 ft | 2 kts | 6° |
| 2026-04-28 03:59 | -8.74667 | 115.16932 | 32 ft | 2 kts | 60° |
| 2026-04-28 03:59 | -8.74671 | 115.16924 | 32 ft | 0 kts | 84° |
| 2026-04-28 04:04 | -8.74671 | 115.16928 | 32 ft | 3 kts | 88° |
| 2026-04-28 04:05 | -8.74669 | 115.16977 | 31 ft | 11 kts | 88° |
| 2026-04-28 04:05 | -8.74665 | 115.17068 | 31 ft | 15 kts | 87° |
| 2026-04-28 04:05 | -8.74660 | 115.17179 | 32 ft | 17 kts | 88° |
| 2026-04-28 04:05 | -8.74654 | 115.17294 | 32 ft | 17 kts | 88° |
| 2026-04-28 04:06 | -8.74652 | 115.17370 | 32 ft | 10 kts | 88° |
| 2026-04-28 04:06 | -8.74650 | 115.17437 | 32 ft | 11 kts | 88° |
| 2026-04-28 04:06 | -8.74646 | 115.17524 | 32 ft | 14 kts | 88° |
| 2026-04-28 04:06 | -8.74641 | 115.17603 | 32 ft | 11 kts | 86° |
| 2026-04-28 04:07 | -8.74638 | 115.17688 | 32 ft | 14 kts | 88° |
| 2026-04-28 04:07 | -8.74635 | 115.17786 | 32 ft | 12 kts | 88° |
| 2026-04-28 04:07 | -8.74631 | 115.17874 | 32 ft | 11 kts | 88° |
| 2026-04-28 04:07 | -8.74628 | 115.17940 | 32 ft | 10 kts | 87° |
| 2026-04-28 04:08 | -8.74626 | 115.17998 | 32 ft | 9 kts | 88° |
| 2026-04-28 04:08 | -8.74631 | 115.18059 | 31 ft | 10 kts | 110° |
| 2026-04-28 04:08 | -8.74688 | 115.18095 | 31 ft | 4 kts | 178° |
| 2026-04-28 04:08 | -8.74736 | 115.18096 | 29 ft | 10 kts | 179° |
| 2026-04-28 04:09 | -8.74764 | 115.18097 | 29 ft | 3 kts | 179° |
| 2026-04-28 04:09 | -8.74783 | 115.18082 | 29 ft | 4 kts | 245° |
| 2026-04-28 04:09 | -8.74788 | 115.18047 | 29 ft | 6 kts | 266° |
| 2026-04-28 04:09 | -8.74794 | 115.17914 | 29 ft | 48 kts | 268° |
| 2026-04-28 04:10 | -8.74818 | 115.17313 | 27 ft | 120 kts | 268° |
| 2026-04-28 04:10 | -8.74859 | 115.16281 | 44 ft | 171 kts | 269° |
| 2026-04-28 04:10 | -8.74923 | 115.15079 | 661 ft | 171 kts | 269° |
| 2026-04-28 04:10 | -8.74958 | 115.13865 | 1332 ft | 174 kts | 272° |
| 2026-04-28 04:11 | -8.74872 | 115.12657 | 2004 ft | 180 kts | 275° |
| 2026-04-28 04:11 | -8.74766 | 115.11318 | 2482 ft | 201 kts | 274° |
| 2026-04-28 04:11 | -8.74686 | 115.09834 | 2973 ft | 222 kts | 272° |
| 2026-04-28 04:11 | -8.74636 | 115.08180 | 3402 ft | 247 kts | 271° |
| 2026-04-28 04:12 | -8.74872 | 115.06396 | 3937 ft | 268 kts | 248° |
| 2026-04-28 04:12 | -8.75947 | 115.04823 | 4655 ft | 277 kts | 219° |
| 2026-04-28 04:12 | -8.77639 | 115.03912 | 5543 ft | 278 kts | 192° |
| 2026-04-28 04:12 | -8.78907 | 115.03777 | 6152 ft | 277 kts | 174° |
| 2026-04-28 04:13 | -8.80745 | 115.04314 | 6997 ft | 277 kts | 148° |
| 2026-04-28 04:13 | -8.82145 | 115.05628 | 7850 ft | 277 kts | 121° |
| 2026-04-28 04:13 | -8.82836 | 115.07449 | 8688 ft | 281 kts | 100° |
| 2026-04-28 04:13 | -8.83150 | 115.09412 | 9518 ft | 285 kts | 99° |
| 2026-04-28 04:14 | -8.83603 | 115.11378 | 10343 ft | 291 kts | 106° |
| 2026-04-28 04:14 | -8.84299 | 115.13375 | 10700 ft | 313 kts | 111° |
| 2026-04-28 04:14 | -8.84925 | 115.15559 | 10970 ft | 334 kts | 97° |
| 2026-04-28 04:14 | -8.84834 | 115.17926 | 11574 ft | 342 kts | 78° |
| 2026-04-28 04:15 | -8.83923 | 115.20157 | 12334 ft | 347 kts | 58° |
| 2026-04-28 04:15 | -8.82319 | 115.22011 | 13089 ft | 354 kts | 47° |
| 2026-04-28 04:15 | -8.78797 | 115.25529 | 14441 ft | 362 kts | 46° |
| 2026-04-28 04:16 | -8.76994 | 115.27319 | 15091 ft | 365 kts | 46° |
| 2026-04-28 04:16 | -8.75175 | 115.29132 | 15734 ft | 369 kts | 45° |
| 2026-04-28 04:16 | -8.73344 | 115.30964 | 16355 ft | 373 kts | 45° |
| 2026-04-28 04:16 | -8.71497 | 115.32818 | 16532 ft | 375 kts | 45° |
| 2026-04-28 04:17 | -8.69647 | 115.34677 | 16660 ft | 374 kts | 45° |
| 2026-04-28 04:17 | -8.67798 | 115.36535 | 16776 ft | 375 kts | 45° |
| 2026-04-28 04:17 | -8.65946 | 115.38396 | 16871 ft | 376 kts | 45° |
| 2026-04-28 04:17 | -8.64089 | 115.40260 | 16885 ft | 377 kts | 45° |
| 2026-04-28 04:18 | -8.62326 | 115.42213 | 16882 ft | 375 kts | 56° |
| 2026-04-28 04:18 | -8.61168 | 115.44567 | 16893 ft | 375 kts | 73° |
| 2026-04-28 04:18 | -8.60786 | 115.47163 | 16888 ft | 375 kts | 90° |
| 2026-04-28 04:18 | -8.60876 | 115.49805 | 16885 ft | 375 kts | 92° |
| 2026-04-28 04:19 | -8.60979 | 115.52438 | 16885 ft | 375 kts | 92° |
| 2026-04-28 04:19 | -8.61080 | 115.55072 | 16884 ft | 375 kts | 91° |
| 2026-04-28 04:19 | -8.61176 | 115.57673 | 16884 ft | 375 kts | 91° |
| 2026-04-28 04:19 | -8.61271 | 115.60303 | 16886 ft | 375 kts | 91° |
| 2026-04-28 04:20 | -8.61364 | 115.62930 | 16881 ft | 374 kts | 91° |
| 2026-04-28 04:20 | -8.61457 | 115.65561 | 16882 ft | 374 kts | 91° |
| 2026-04-28 04:20 | -8.61549 | 115.68189 | 16882 ft | 374 kts | 91° |
| 2026-04-28 04:20 | -8.61641 | 115.70819 | 16878 ft | 374 kts | 91° |
| 2026-04-28 04:21 | -8.61733 | 115.73456 | 16879 ft | 374 kts | 91° |
| 2026-04-28 04:21 | -8.61825 | 115.76080 | 16879 ft | 374 kts | 91° |
| 2026-04-28 04:21 | -8.61918 | 115.78732 | 17073 ft | 378 kts | 91° |
| 2026-04-28 04:21 | -8.62010 | 115.81360 | 17726 ft | 380 kts | 91° |
| 2026-04-28 04:22 | -8.62104 | 115.84036 | 18311 ft | 383 kts | 91° |
| 2026-04-28 04:22 | -8.62199 | 115.86739 | 18837 ft | 386 kts | 91° |
| 2026-04-28 04:22 | -8.62293 | 115.89456 | 19372 ft | 389 kts | 91° |
| 2026-04-28 04:22 | -8.62388 | 115.92195 | 19896 ft | 391 kts | 91° |
| 2026-04-28 04:23 | -8.62484 | 115.94960 | 20433 ft | 394 kts | 91° |
| 2026-04-28 04:23 | -8.62580 | 115.97739 | 20949 ft | 397 kts | 91° |
| 2026-04-28 04:23 | -8.62676 | 116.00539 | 21459 ft | 400 kts | 91° |
| 2026-04-28 04:23 | -8.62773 | 116.03359 | 21966 ft | 403 kts | 90° |
| 2026-04-28 04:24 | -8.62550 | 116.06181 | 22476 ft | 404 kts | 77° |
| 2026-04-28 04:24 | -8.61643 | 116.08872 | 22938 ft | 407 kts | 63° |
| 2026-04-28 04:24 | -8.60115 | 116.11235 | 23403 ft | 410 kts | 50° |
| 2026-04-28 04:24 | -8.58008 | 116.13184 | 23800 ft | 414 kts | 35° |
| 2026-04-28 04:25 | -8.55479 | 116.14586 | 24201 ft | 417 kts | 26° |
| 2026-04-28 04:25 | -8.52838 | 116.15837 | 24598 ft | 420 kts | 26° |
| 2026-04-28 04:25 | -8.50187 | 116.17092 | 24981 ft | 423 kts | 26° |
| 2026-04-28 04:25 | -8.47516 | 116.18360 | 25360 ft | 425 kts | 26° |
| 2026-04-28 04:26 | -8.44833 | 116.19637 | 25748 ft | 427 kts | 26° |
| 2026-04-28 04:26 | -8.42142 | 116.20919 | 26130 ft | 430 kts | 26° |
| 2026-04-28 04:26 | -8.39426 | 116.22213 | 26489 ft | 432 kts | 26° |
| 2026-04-28 04:26 | -8.36696 | 116.23514 | 26828 ft | 435 kts | 26° |
| 2026-04-28 04:27 | -8.33954 | 116.24821 | 27174 ft | 437 kts | 26° |
| 2026-04-28 04:27 | -8.31193 | 116.26137 | 27507 ft | 440 kts | 26° |
| 2026-04-28 04:27 | -8.28412 | 116.27461 | 27830 ft | 443 kts | 26° |
| 2026-04-28 04:27 | -8.25615 | 116.28793 | 28136 ft | 445 kts | 26° |
| 2026-04-28 04:28 | -8.22808 | 116.30130 | 28447 ft | 448 kts | 26° |
| 2026-04-28 04:28 | -8.19982 | 116.31475 | 28751 ft | 450 kts | 26° |
| 2026-04-28 04:28 | -8.17140 | 116.32829 | 29041 ft | 453 kts | 26° |
| 2026-04-28 04:28 | -8.14281 | 116.34189 | 29313 ft | 455 kts | 26° |
| 2026-04-28 04:29 | -8.11411 | 116.35555 | 29589 ft | 458 kts | 26° |
| 2026-04-28 04:29 | -8.08513 | 116.36934 | 29868 ft | 460 kts | 26° |
| 2026-04-28 04:29 | -8.05607 | 116.38316 | 30125 ft | 462 kts | 26° |
| 2026-04-28 04:29 | -8.02732 | 116.39684 | 30397 ft | 464 kts | 26° |
| 2026-04-28 04:30 | -7.99806 | 116.41075 | 30647 ft | 466 kts | 26° |
| 2026-04-28 04:30 | -7.96857 | 116.42478 | 30797 ft | 468 kts | 26° |
| 2026-04-28 04:30 | -7.93913 | 116.43877 | 30864 ft | 468 kts | 26° |
| 2026-04-28 04:31 | -7.88031 | 116.46673 | 30870 ft | 467 kts | 26° |
| 2026-04-28 04:31 | -7.82144 | 116.49470 | 30872 ft | 467 kts | 26° |
| 2026-04-28 04:32 | -7.76271 | 116.52260 | 30869 ft | 466 kts | 26° |
| 2026-04-28 04:32 | -7.70402 | 116.55047 | 30871 ft | 466 kts | 26° |
| 2026-04-28 04:33 | -7.64546 | 116.57827 | 30870 ft | 465 kts | 26° |
| 2026-04-28 04:33 | -7.58698 | 116.60603 | 30870 ft | 464 kts | 26° |
| 2026-04-28 04:34 | -7.52964 | 116.63576 | 30872 ft | 462 kts | 34° |
| 2026-04-28 04:34 | -7.48100 | 116.67772 | 30866 ft | 460 kts | 49° |
| 2026-04-28 04:35 | -7.43977 | 116.72701 | 30867 ft | 459 kts | 50° |
| 2026-04-28 04:35 | -7.39876 | 116.77591 | 30862 ft | 459 kts | 50° |
| 2026-04-28 04:36 | -7.35756 | 116.82501 | 30862 ft | 459 kts | 50° |
| 2026-04-28 04:36 | -7.31636 | 116.87412 | 30864 ft | 458 kts | 50° |
| 2026-04-28 04:37 | -7.27520 | 116.92317 | 30865 ft | 458 kts | 50° |
| 2026-04-28 04:37 | -7.23407 | 116.97218 | 30868 ft | 458 kts | 50° |
| 2026-04-28 04:38 | -7.19286 | 117.02126 | 30871 ft | 458 kts | 50° |
| 2026-04-28 04:38 | -7.15173 | 117.07024 | 30873 ft | 457 kts | 50° |
| 2026-04-28 04:39 | -7.11089 | 117.11885 | 30872 ft | 457 kts | 50° |
| 2026-04-28 04:39 | -7.06980 | 117.16775 | 30869 ft | 457 kts | 50° |
| 2026-04-28 04:40 | -7.02875 | 117.21659 | 30865 ft | 457 kts | 50° |
| 2026-04-28 04:40 | -6.98773 | 117.26538 | 30870 ft | 456 kts | 50° |
| 2026-04-28 04:41 | -6.94670 | 117.31416 | 30868 ft | 456 kts | 50° |
| 2026-04-28 04:41 | -6.90560 | 117.36301 | 30870 ft | 456 kts | 50° |
| 2026-04-28 04:42 | -6.86482 | 117.41147 | 30872 ft | 456 kts | 50° |
| 2026-04-28 04:42 | -6.82377 | 117.46023 | 30867 ft | 456 kts | 50° |
| 2026-04-28 04:43 | -6.78273 | 117.50897 | 30865 ft | 457 kts | 50° |
| 2026-04-28 04:43 | -6.74164 | 117.55775 | 30872 ft | 457 kts | 50° |
| 2026-04-28 04:44 | -6.70016 | 117.60701 | 30877 ft | 462 kts | 50° |
| 2026-04-28 04:44 | -6.65557 | 117.65340 | 30876 ft | 461 kts | 43° |
| 2026-04-28 04:45 | -6.60820 | 117.69708 | 30873 ft | 461 kts | 43° |
| 2026-04-28 04:45 | -6.56098 | 117.74078 | 30878 ft | 461 kts | 43° |
| 2026-04-28 04:46 | -6.51408 | 117.78415 | 30872 ft | 461 kts | 43° |
| 2026-04-28 04:46 | -6.46687 | 117.82779 | 30874 ft | 461 kts | 43° |
| 2026-04-28 04:47 | -6.41970 | 117.87138 | 30874 ft | 461 kts | 43° |
| 2026-04-28 04:47 | -6.37246 | 117.91502 | 30876 ft | 461 kts | 43° |
| 2026-04-28 04:48 | -6.32525 | 117.95862 | 30876 ft | 460 kts | 43° |
| 2026-04-28 04:48 | -6.27804 | 118.00222 | 30877 ft | 460 kts | 43° |
| 2026-04-28 04:49 | -6.23085 | 118.04578 | 30875 ft | 460 kts | 43° |
| 2026-04-28 04:49 | -6.18375 | 118.08925 | 30875 ft | 460 kts | 43° |
| 2026-04-28 04:50 | -6.13687 | 118.13250 | 30872 ft | 460 kts | 43° |
| 2026-04-28 04:50 | -6.08969 | 118.17602 | 30661 ft | 460 kts | 44° |
| 2026-04-28 04:50 | -6.06606 | 118.19781 | 30437 ft | 458 kts | 44° |
| 2026-04-28 04:51 | -6.04263 | 118.21942 | 30205 ft | 456 kts | 44° |
| 2026-04-28 04:51 | -6.01930 | 118.24092 | 29977 ft | 454 kts | 44° |
| 2026-04-28 04:51 | -5.99610 | 118.26231 | 29723 ft | 452 kts | 44° |
| 2026-04-28 04:51 | -5.97292 | 118.28368 | 29463 ft | 450 kts | 44° |
| 2026-04-28 04:52 | -5.94987 | 118.30493 | 29196 ft | 448 kts | 44° |
| 2026-04-28 04:52 | -5.92692 | 118.32607 | 28935 ft | 447 kts | 44° |
| 2026-04-28 04:52 | -5.90408 | 118.34712 | 28678 ft | 445 kts | 44° |
| 2026-04-28 04:52 | -5.88132 | 118.36810 | 28425 ft | 443 kts | 44° |
| 2026-04-28 04:53 | -5.85864 | 118.38898 | 28168 ft | 441 kts | 44° |
| 2026-04-28 04:53 | -5.83606 | 118.40978 | 27917 ft | 440 kts | 44° |
| 2026-04-28 04:53 | -5.81376 | 118.43032 | 27464 ft | 439 kts | 44° |
| 2026-04-28 04:53 | -5.79144 | 118.45089 | 27034 ft | 433 kts | 44° |
| 2026-04-28 04:54 | -5.76937 | 118.47125 | 26466 ft | 429 kts | 44° |
| 2026-04-28 04:54 | -5.74747 | 118.49150 | 25869 ft | 426 kts | 44° |
| 2026-04-28 04:54 | -5.72573 | 118.51158 | 25305 ft | 422 kts | 44° |
| 2026-04-28 04:54 | -5.70418 | 118.53149 | 24742 ft | 419 kts | 44° |
| 2026-04-28 04:55 | -5.68282 | 118.55123 | 24192 ft | 416 kts | 44° |
| 2026-04-28 04:55 | -5.66162 | 118.57081 | 23648 ft | 412 kts | 44° |
| 2026-04-28 04:55 | -5.64062 | 118.59020 | 23055 ft | 409 kts | 44° |
| 2026-04-28 04:55 | -5.61973 | 118.60948 | 22448 ft | 405 kts | 44° |
| 2026-04-28 04:56 | -5.59907 | 118.62856 | 21845 ft | 402 kts | 44° |
| 2026-04-28 04:56 | -5.57857 | 118.64748 | 21259 ft | 398 kts | 44° |
| 2026-04-28 04:56 | -5.55823 | 118.66625 | 20690 ft | 395 kts | 43° |
| 2026-04-28 04:56 | -5.53809 | 118.68484 | 20108 ft | 392 kts | 43° |
| 2026-04-28 04:57 | -5.51806 | 118.70333 | 19551 ft | 389 kts | 43° |
| 2026-04-28 04:57 | -5.49844 | 118.72143 | 19021 ft | 387 kts | 43° |
| 2026-04-28 04:57 | -5.47871 | 118.73964 | 18492 ft | 384 kts | 43° |
| 2026-04-28 04:57 | -5.45911 | 118.75772 | 17924 ft | 381 kts | 43° |
| 2026-04-28 04:58 | -5.43964 | 118.77567 | 17343 ft | 378 kts | 43° |
| 2026-04-28 04:58 | -5.42034 | 118.79348 | 16773 ft | 375 kts | 43° |
| 2026-04-28 04:58 | -5.40120 | 118.81113 | 16216 ft | 372 kts | 43° |
| 2026-04-28 04:58 | -5.38219 | 118.82866 | 15679 ft | 369 kts | 43° |
| 2026-04-28 04:59 | -5.36340 | 118.84599 | 15086 ft | 363 kts | 43° |
| 2026-04-28 04:59 | -5.34527 | 118.86270 | 14850 ft | 343 kts | 43° |
| 2026-04-28 04:59 | -5.32816 | 118.87849 | 14573 ft | 328 kts | 43° |
| 2026-04-28 04:59 | -5.31154 | 118.89393 | 14001 ft | 324 kts | 45° |
| 2026-04-28 05:00 | -5.30239 | 118.90566 | 13560 ft | 323 kts | 60° |
| 2026-04-28 05:00 | -5.29519 | 118.92677 | 12858 ft | 321 kts | 83° |
| 2026-04-28 05:00 | -5.29461 | 118.95634 | 12083 ft | 316 kts | 90° |
| 2026-04-28 05:00 | -5.29465 | 118.97835 | 11691 ft | 318 kts | 90° |
| 2026-04-28 05:01 | -5.29466 | 119.00073 | 11261 ft | 322 kts | 90° |
| 2026-04-28 05:01 | -5.29465 | 119.01578 | 11058 ft | 315 kts | 90° |
| 2026-04-28 05:01 | -5.29460 | 119.03730 | 10496 ft | 312 kts | 90° |
| 2026-04-28 05:01 | -5.29452 | 119.05927 | 9891 ft | 310 kts | 90° |
| 2026-04-28 05:02 | -5.29444 | 119.08080 | 9257 ft | 307 kts | 90° |
| 2026-04-28 05:02 | -5.29436 | 119.10184 | 8666 ft | 304 kts | 90° |
| 2026-04-28 05:02 | -5.29427 | 119.12299 | 8060 ft | 301 kts | 90° |
| 2026-04-28 05:02 | -5.29419 | 119.14386 | 7559 ft | 296 kts | 90° |
| 2026-04-28 05:03 | -5.29411 | 119.16421 | 7390 ft | 284 kts | 89° |
| 2026-04-28 05:03 | -5.29403 | 119.18349 | 7257 ft | 268 kts | 89° |
| 2026-04-28 05:03 | -5.29395 | 119.20181 | 6973 ft | 258 kts | 89° |
| 2026-04-28 05:03 | -5.29387 | 119.21961 | 6780 ft | 259 kts | 89° |
| 2026-04-28 05:04 | -5.29379 | 119.23786 | 6713 ft | 262 kts | 89° |
| 2026-04-28 05:04 | -5.29371 | 119.25612 | 6430 ft | 259 kts | 89° |
| 2026-04-28 05:04 | -5.29364 | 119.27404 | 6070 ft | 256 kts | 89° |
| 2026-04-28 05:04 | -5.29356 | 119.29185 | 5666 ft | 255 kts | 89° |
| 2026-04-28 05:05 | -5.29349 | 119.30950 | 5315 ft | 251 kts | 89° |
| 2026-04-28 05:05 | -5.29342 | 119.32705 | 5006 ft | 251 kts | 89° |
| 2026-04-28 05:05 | -5.29335 | 119.34385 | 4874 ft | 236 kts | 89° |
| 2026-04-28 05:05 | -5.29329 | 119.35973 | 4746 ft | 220 kts | 89° |
| 2026-04-28 05:06 | -5.29323 | 119.37475 | 4462 ft | 213 kts | 89° |
| 2026-04-28 05:06 | -5.29316 | 119.38953 | 4198 ft | 206 kts | 89° |
| 2026-04-28 05:06 | -5.29309 | 119.40403 | 4086 ft | 214 kts | 89° |
| 2026-04-28 05:06 | -5.29228 | 119.41882 | 3994 ft | 211 kts | 73° |
| 2026-04-28 05:07 | -5.28432 | 119.43086 | 3971 ft | 211 kts | 43° |
| 2026-04-28 05:07 | -5.27263 | 119.43961 | 3885 ft | 209 kts | 31° |
| 2026-04-28 05:07 | -5.26002 | 119.44695 | 3677 ft | 210 kts | 28° |
| 2026-04-28 05:07 | -5.24741 | 119.45418 | 3407 ft | 208 kts | 30° |
| 2026-04-28 05:08 | -5.23500 | 119.46137 | 3143 ft | 205 kts | 29° |
| 2026-04-28 05:08 | -5.22274 | 119.46846 | 2874 ft | 197 kts | 29° |
| 2026-04-28 05:08 | -5.21139 | 119.47504 | 2632 ft | 181 kts | 29° |
| 2026-04-28 05:08 | -5.20104 | 119.48104 | 2408 ft | 168 kts | 29° |
| 2026-04-28 05:09 | -5.19119 | 119.48674 | 2194 ft | 158 kts | 29° |
| 2026-04-28 05:09 | -5.18196 | 119.49208 | 2002 ft | 149 kts | 29° |
| 2026-04-28 05:09 | -5.17282 | 119.49736 | 1812 ft | 152 kts | 29° |
| 2026-04-28 05:09 | -5.16368 | 119.50265 | 1630 ft | 151 kts | 29° |
| 2026-04-28 05:10 | -5.15458 | 119.50792 | 1428 ft | 150 kts | 28° |
| 2026-04-28 05:10 | -5.14555 | 119.51315 | 1249 ft | 150 kts | 28° |
| 2026-04-28 05:10 | -5.13658 | 119.51836 | 1055 ft | 147 kts | 27° |
| 2026-04-28 05:10 | -5.12761 | 119.52354 | 871 ft | 149 kts | 27° |
| 2026-04-28 05:11 | -5.11861 | 119.52883 | 684 ft | 148 kts | 28° |
| 2026-04-28 05:11 | -5.10968 | 119.53419 | 494 ft | 151 kts | 28° |
| 2026-04-28 05:11 | -5.10068 | 119.53929 | 266 ft | 148 kts | 27° |
| 2026-04-28 05:11 | -5.09173 | 119.54441 | 86 ft | 148 kts | 27° |
| 2026-04-28 05:12 | -5.08328 | 119.54923 | 39 ft | 122 kts | 30° |
| 2026-04-28 05:12 | -5.07769 | 119.55246 | 42 ft | 64 kts | 30° |
| 2026-04-28 05:12 | -5.07567 | 119.55362 | 41 ft | 22 kts | 30° |
| 2026-04-28 05:12 | -5.07489 | 119.55400 | 39 ft | 15 kts | 21° |
| 2026-04-28 05:13 | -5.07372 | 119.55424 | 40 ft | 16 kts | 5° |
| 2026-04-28 05:13 | -5.07286 | 119.55428 | 37 ft | 11 kts | 1° |
| 2026-04-28 05:13 | -5.07236 | 119.55428 | 40 ft | 2 kts | 0° |
| 2026-04-28 05:13 | -5.07213 | 119.55422 | 40 ft | 5 kts | 326° |
| 2026-04-28 05:14 | -5.07204 | 119.55389 | 40 ft | 6 kts | 263° |
| 2026-04-28 05:14 | -5.07231 | 119.55349 | 41 ft | 8 kts | 214° |
| 2026-04-28 05:14 | -5.07291 | 119.55317 | 41 ft | 12 kts | 210° |
| 2026-04-28 05:14 | -5.07377 | 119.55267 | 41 ft | 13 kts | 209° |
| 2026-04-28 05:15 | -5.07468 | 119.55215 | 41 ft | 17 kts | 210° |
| 2026-04-28 05:15 | -5.07563 | 119.55161 | 41 ft | 14 kts | 210° |
| 2026-04-28 05:15 | -5.07615 | 119.55112 | 41 ft | 11 kts | 252° |
| 2026-04-28 05:15 | -5.07594 | 119.55036 | 40 ft | 12 kts | 299° |
| 2026-04-28 05:16 | -5.07587 | 119.54961 | 41 ft | 12 kts | 259° |
| 2026-04-28 05:16 | -5.07634 | 119.54894 | 41 ft | 13 kts | 212° |
| 2026-04-28 05:16 | -5.07723 | 119.54842 | 41 ft | 15 kts | 210° |
| 2026-04-28 05:17 | -5.07778 | 119.54775 | 41 ft | 6 kts | 297° |
| 2026-04-28 05:17 | -5.07757 | 119.54736 | 41 ft | 0 kts | 299° |